Share

Holstein, IA (51025)

5:45 PM CDT on April 24, 2014 (GMT -0500)
Holstein Ag Services, LLC (KIAHOLST2) Elev 1381 ft | 42.50 °N, 95.54 °W | Change Station

Current weather conditions updated 35 seconds ago

Clear
Clear
61.0 °F
Feels Like 61.0 °F
N
9.0
Wind Variable Wind from NNW
Gusts 16.0 mph
Sunrise 6:27 AM
Sunset 8:14 PM
Moon Waning Crescent

Tomorrow is forecast to be Much Cooler than today.

Pressure 29.71 in
Visibility 10.0 miles
Clouds Clear
Dew Point 45 °F
Humidity 56%
Rainfall 1.03 in
Snow Depth Not available.
UV 3 out of 16
Pollen 7.70 out of 12
Air Quality Not available.
Flu Activity Sporadic
METAR KCKP 242235Z AUTO 35015KT 10SM CLR 17/06 A2971 RMK AO2 T01650055

More Conditions Fewer Conditions

Pressure 29.71 in
Visibility 10.0 miles
Clouds Clear
Dew Point 45 °F
Humidity 56%
Rainfall 1.03 in
Snow Depth Not available.
UV 3 out of 16
Pollen 7.70 out of 12
Air Quality Not available.
Flu Activity Sporadic
METAR KCKP 242235Z AUTO 35015KT 10SM CLR 17/06 A2971 RMK AO2 T01650055

More Conditions Fewer Conditions

10-Day Weather Forecast

Almanac

Astronomy

Apr. 24, 2014 Rise Set
Actual Time 6:27 AM CDT 8:14 PM CDT
Civil Twilight 5:57 AM CDT 8:44 PM CDT
Nautical Twilight 5:20 AM CDT 9:21 PM CDT
Astronomical Twilight 4:41 AM CDT 10:00 PM CDT
Moon 3:45 AM CDT 3:25 PM CDT
Length of Visible Light 14h 47m
Length of Day
13h 47m
Tomorrow will be 2m 37s longer.
Waning Crescent, 22% of the Moon is Illuminated
Today
Waning Crescent
Apr 29
New
May 6
First Quarter
May 14
Full
May 21
Last Quarter

Today's Extremes

State Highs State Lows

Community

  • Jone Runs Falls
    Jone Runs Falls
  • Easter in Shenandoah National Park
    Easter in Shenandoah National Park
  • Sunset at Apalachicola Bay, Florida
    Sunset at Apalachicola Bay, Florida
  • Clouds mov'n in
    Clouds mov'n in
  • Stacked
    Stacked

WunderPhotos

Upload Photos

1,704,732 photos uploaded!

Nearby

Snow Depth

Station Depth Elevation
No new snow has been reported.

Coastal Water Temperatures

Place Temperature
No Stations Reporting

Earthquake Activity

City Distance Mag. Time & Date
No recent earthquake activity has been reported nearby.
Minimum magnitude displayed is 2.5.

Nearby Weather Stations

Station Location Temp. Dew Point Humidity Wind Precip. Elev Updated Type
Holstein Ag Services, LLC, Holstein, IA 61.0 °F 45 °F 56% NNW  at  9.0 mph 0.00 in / hr 1381 ft 5:45 PM CDT Rapid Fire
Oxendales Arthur, IA, Arthur, IA 59.4 °F 48 °F 65% NNE  at  3.6 mph 0.00 in / hr 1496 ft 5:45 PM CDT Rapid Fire
The Danbury Review, Danbury, IA 62.6 °F 43 °F 48% NNW  at  3.0 mph 0.00 in / hr 1162 ft 5:45 PM CDT Normal
Ricklefs Home, Storm Lake, IA 60.3 °F 47 °F 62% North  at  6.9 mph 0.00 in / hr 1414 ft 5:45 PM CDT Rapid Fire

Show More Stations Show Fewer Stations

What do you think?

We're not finished. Please let us know what you like, what you don't like, and what you are still missing.